Time;durP1;ratioP1;P1;durP2;ratioP2;P2;SDS_P1;SDS_P2;PMS_P1;PMS_P2;Temp;Humidity;BMP_temperature;BMP_pressure;BME280_temperature;BME280_humidity;BME280_pressure;Samples;Min_cycle;Max_cycle;Signal;HPM_P1;HPM_P2
2022/08/25 00:01:10;;;;;;;5.55;5.05;;;20.10;99.90;;;;;;5036209;28;20037;-80
2022/08/25 00:03:35;;;;;;;5.50;5.00;;;20.10;99.90;;;;;;5037142;28;20041;-80
2022/08/25 00:06:03;;;;;;;5.47;4.97;;;20.10;99.90;;;;;;5044631;28;20089;-81
2022/08/25 00:08:29;;;;;;;5.70;5.22;;;20.10;99.90;;;;;;5044978;28;20041;-80
2022/08/25 00:10:55;;;;;;;7.38;4.88;;;19.90;99.90;;;;;;5047731;28;20165;-81
2022/08/25 00:13:20;;;;;;;6.10;5.20;;;19.90;99.90;;;;;;5056633;28;20045;-80
2022/08/25 00:15:46;;;;;;;7.72;5.13;;;19.80;99.90;;;;;;5054353;28;20037;-80
2022/08/25 00:18:12;;;;;;;7.75;5.47;;;19.80;99.90;;;;;;5045657;28;20065;-80
2022/08/25 00:20:38;;;;;;;6.30;4.88;;;19.80;99.90;;;;;;5037159;28;20045;-80
2022/08/25 00:23:04;;;;;;;8.35;5.25;;;19.70;99.90;;;;;;5037490;28;20077;-80
2022/08/25 00:25:30;;;;;;;6.80;4.68;;;19.70;99.90;;;;;;5043907;28;20040;-80
2022/08/25 00:27:56;;;;;;;6.10;4.50;;;19.70;99.90;;;;;;5049012;28;20099;-80
2022/08/25 00:30:21;;;;;;;6.35;4.50;;;19.60;99.90;;;;;;5024272;28;20057;-80
2022/08/25 00:32:47;;;;;;;6.63;5.72;;;19.60;99.90;;;;;;5044696;28;20523;-80
2022/08/25 00:35:13;;;;;;;8.05;5.30;;;19.50;99.90;;;;;;5043951;28;20040;-80
2022/08/25 00:37:38;;;;;;;6.38;4.82;;;19.50;99.90;;;;;;5046520;28;20044;-80
2022/08/25 00:40:05;;;;;;;6.65;4.63;;;19.40;99.90;;;;;;5046027;28;20050;-80
2022/08/25 00:42:31;;;;;;;6.22;5.68;;;19.40;99.90;;;;;;5035952;28;20037;-80
2022/08/25 00:44:57;;;;;;;7.55;4.95;;;19.30;99.90;;;;;;5030927;28;20085;-80
2022/08/25 00:47:24;;;;;;;5.43;4.05;;;19.30;99.90;;;;;;5046424;28;20045;-79
2022/08/25 00:49:56;;;;;;;6.50;4.13;;;19.20;99.90;;;;;;5040229;28;20041;-79
2022/08/25 00:52:44;;;;;;;7.65;4.90;;;19.20;99.90;;;;;;5042650;28;20037;-79
2022/08/25 00:55:17;;;;;;;6.32;4.68;;;19.20;99.90;;;;;;5038849;28;20053;-79
2022/08/25 00:57:46;;;;;;;5.22;4.72;;;19.20;99.90;;;;;;5040039;28;20155;-79
2022/08/25 01:00:22;;;;;;;4.90;4.40;;;19.20;99.90;;;;;;5040947;28;20060;-79
2022/08/25 01:02:47;;;;;;;5.40;4.90;;;19.30;99.90;;;;;;5030965;28;20049;-79
2022/08/25 01:05:13;;;;;;;5.68;4.38;;;19.20;99.90;;;;;;5022905;28;20060;-80
2022/08/25 01:07:42;;;;;;;6.13;5.15;;;19.20;99.90;;;;;;5037915;28;20059;-80
2022/08/25 01:10:09;;;;;;;6.65;5.20;;;19.20;99.90;;;;;;5043086;28;20033;-79
2022/08/25 01:12:36;;;;;;;6.22;5.05;;;19.10;99.90;;;;;;5034913;28;20048;-80
2022/08/25 01:15:04;;;;;;;5.68;4.57;;;19.10;99.90;;;;;;5035433;28;20049;-80
2022/08/25 01:17:45;;;;;;;8.32;5.07;;;19.00;99.90;;;;;;5034932;28;20077;-80
2022/08/25 01:20:13;;;;;;;7.60;5.35;;;19.00;99.90;;;;;;5038641;28;20072;-80
2022/08/25 01:22:39;;;;;;;5.10;4.53;;;19.00;99.90;;;;;;5034694;28;20151;-80
2022/08/25 01:25:26;;;;;;;6.93;5.05;;;19.00;99.90;;;;;;5054295;28;20051;-80
2022/08/25 01:27:52;;;;;;;5.15;4.55;;;19.10;99.90;;;;;;5051544;28;20033;-81
2022/08/25 01:30:18;;;;;;;8.57;5.13;;;19.10;99.90;;;;;;5040461;28;20546;-81
2022/08/25 01:32:44;;;;;;;7.30;4.32;;;19.10;99.90;;;;;;5039958;28;20042;-81
2022/08/25 01:35:10;;;;;;;5.38;4.20;;;19.10;99.90;;;;;;5032099;28;20053;-81
2022/08/25 01:37:36;;;;;;;5.28;3.63;;;19.10;99.90;;;;;;5031947;28;20052;-80
2022/08/25 01:40:02;;;;;;;5.45;4.45;;;19.10;99.90;;;;;;5034762;28;20038;-80
2022/08/25 01:42:57;;;;;;;5.15;4.65;;;19.10;99.90;;;;;;5047159;28;20454;-81
2022/08/25 01:45:23;;;;;;;4.83;4.33;;;19.10;99.90;;;;;;5052652;28;20036;-80
2022/08/25 01:47:49;;;;;;;7.22;4.53;;;19.20;99.90;;;;;;5051932;28;20041;-80
2022/08/25 01:50:14;;;;;;;5.55;4.10;;;19.10;99.90;;;;;;5043971;28;20082;-80
2022/08/25 01:52:52;;;;;;;5.20;3.85;;;19.10;99.90;;;;;;5038363;28;20128;-80
2022/08/25 01:55:18;;;;;;;7.88;3.95;;;19.10;99.90;;;;;;5038583;28;20068;-79
2022/08/25 01:57:45;;;;;;;5.60;4.10;;;19.10;99.90;;;;;;5037744;28;20037;-80
2022/08/25 02:00:13;;;;;;;6.53;3.72;;;19.00;99.90;;;;;;5023718;28;20045;-79
2022/08/25 02:02:41;;;;;;;4.45;3.22;;;19.00;99.90;;;;;;5037007;28;20041;-80
2022/08/25 02:05:08;;;;;;;5.35;3.55;;;18.90;99.90;;;;;;5039782;28;20045;-79
2022/08/25 02:07:35;;;;;;;5.65;3.88;;;18.90;99.90;;;;;;5056887;28;20037;-80
2022/08/25 02:10:03;;;;;;;5.15;3.80;;;18.90;99.90;;;;;;5046892;28;20029;-80
2022/08/25 02:12:30;;;;;;;7.75;4.10;;;18.90;99.90;;;;;;5047697;28;20492;-80
2022/08/25 02:14:57;;;;;;;5.97;3.55;;;18.90;99.90;;;;;;5047454;28;20071;-80
2022/08/25 02:17:22;;;;;;;5.22;3.90;;;18.90;99.90;;;;;;5056716;28;20505;-79
2022/08/25 02:19:48;;;;;;;5.57;3.83;;;18.90;99.90;;;;;;5044573;28;20037;-79
2022/08/25 02:22:14;;;;;;;7.40;4.43;;;18.80;99.90;;;;;;5049109;28;20072;-79
2022/08/25 02:24:40;;;;;;;5.63;3.38;;;18.80;99.90;;;;;;5055942;28;20056;-80
2022/08/25 02:27:06;;;;;;;4.22;3.83;;;18.80;99.90;;;;;;5055812;28;20044;-79
2022/08/25 02:29:32;;;;;;;4.07;3.28;;;18.70;99.90;;;;;;5051227;28;20065;-79
2022/08/25 02:31:58;;;;;;;6.13;3.92;;;18.70;99.90;;;;;;5046597;28;20123;-79
2022/08/25 02:34:24;;;;;;;8.68;3.97;;;18.70;99.90;;;;;;5038508;28;20064;-80
2022/08/25 02:36:49;;;;;;;7.07;4.18;;;18.70;99.90;;;;;;5055755;28;20060;-79
2022/08/25 02:39:15;;;;;;;5.90;3.78;;;18.70;99.90;;;;;;5049002;28;20038;-79
2022/08/25 02:41:41;;;;;;;5.63;3.42;;;18.70;99.90;;;;;;5043606;28;20095;-79
2022/08/25 02:44:07;;;;;;;6.03;3.50;;;18.60;99.90;;;;;;5035470;28;20048;-79
2022/08/25 02:46:33;;;;;;;6.97;3.47;;;18.60;99.90;;;;;;5018744;28;20128;-79
2022/08/25 02:48:59;;;;;;;11.05;3.70;;;18.60;99.90;;;;;;5039212;28;20044;-79
2022/08/25 02:51:28;;;;;;;5.45;3.30;;;18.60;99.90;;;;;;5042003;28;20041;-79
2022/08/25 02:53:56;;;;;;;3.67;3.13;;;18.60;99.90;;;;;;5043433;28;20090;-79
2022/08/25 02:56:23;;;;;;;4.00;3.08;;;18.60;99.90;;;;;;5033992;28;20381;-79
2022/08/25 02:58:48;;;;;;;4.10;3.00;;;18.60;99.90;;;;;;5038246;28;20053;-79
2022/08/25 03:01:15;;;;;;;5.90;3.50;;;18.60;99.90;;;;;;5040508;28;20410;-79
2022/08/25 03:03:43;;;;;;;6.20;3.35;;;18.50;99.90;;;;;;5041847;28;20109;-79
2022/08/25 03:06:10;;;;;;;4.50;3.30;;;18.50;99.90;;;;;;5046605;28;20083;-79
2022/08/25 03:08:36;;;;;;;3.78;3.42;;;18.50;99.90;;;;;;5036336;28;20435;-79
2022/08/25 03:11:02;;;;;;;5.65;3.70;;;18.40;99.90;;;;;;5041368;28;20096;-79
2022/08/25 03:13:28;;;;;;;6.15;3.47;;;18.40;99.90;;;;;;5033020;28;20040;-79
2022/08/25 03:15:53;;;;;;;8.63;4.03;;;18.30;99.90;;;;;;5033094;28;20037;-79
2022/08/25 03:18:19;;;;;;;6.88;3.65;;;18.30;99.90;;;;;;5036029;28;20037;-79
2022/08/25 03:20:45;;;;;;;7.78;3.50;;;18.20;99.90;;;;;;5027273;28;20053;-80
2022/08/25 03:23:11;;;;;;;5.40;3.30;;;18.20;99.90;;;;;;5033173;28;20049;-80
2022/08/25 03:28:25;;;;;;;5.18;3.40;;;18.20;99.90;;;;;;5052327;28;20402;-80
2022/08/25 03:30:52;;;;;;;4.20;3.13;;;18.10;99.90;;;;;;5042057;28;20071;-80
2022/08/25 03:33:18;;;;;;;7.07;3.47;;;18.10;99.90;;;;;;5032748;28;20045;-80
2022/08/25 03:35:44;;;;;;;4.90;3.72;;;18.10;99.90;;;;;;5032947;28;20055;-80
2022/08/25 03:38:10;;;;;;;5.47;2.90;;;18.00;99.90;;;;;;5033803;28;20061;-80
2022/08/25 03:40:36;;;;;;;6.35;3.22;;;18.00;99.90;;;;;;5040001;28;20044;-80
2022/08/25 03:43:02;;;;;;;5.93;4.45;;;18.00;99.90;;;;;;5032332;28;20067;-80
2022/08/25 03:45:28;;;;;;;7.45;4.10;;;17.90;99.90;;;;;;5032519;28;20120;-80
2022/08/25 03:47:54;;;;;;;6.07;4.05;;;17.90;99.90;;;;;;5033467;28;20045;-79
2022/08/25 03:50:21;;;;;;;8.77;4.05;;;17.90;99.90;;;;;;5043898;28;20196;-79
2022/08/25 03:52:52;;;;;;;8.02;3.97;;;17.90;99.90;;;;;;5035040;28;20121;-79
2022/08/25 03:55:18;;;;;;;9.45;4.75;;;17.90;99.90;;;;;;5038013;28;20041;-79
2022/08/25 03:57:44;;;;;;;7.00;3.88;;;17.90;99.90;;;;;;5049800;28;20102;-79
2022/08/25 04:00:11;;;;;;;5.30;3.30;;;17.90;99.90;;;;;;5040002;28;20502;-79
2022/08/25 04:02:37;;;;;;;6.15;4.05;;;17.90;99.90;;;;;;5034935;28;20555;-79
2022/08/25 04:05:03;;;;;;;3.80;3.40;;;17.90;99.90;;;;;;5032554;28;20435;-79
2022/08/25 04:07:28;;;;;;;5.55;3.90;;;17.90;99.90;;;;;;5032599;28;20038;-79
2022/08/25 04:09:55;;;;;;;4.25;3.10;;;17.90;99.90;;;;;;5038623;28;20091;-79
2022/08/25 04:12:21;;;;;;;6.20;3.50;;;17.80;99.90;;;;;;5045642;28;20135;-79
2022/08/25 04:14:46;;;;;;;5.05;3.55;;;17.90;99.90;;;;;;5052145;28;20124;-79
2022/08/25 04:17:12;;;;;;;7.50;3.10;;;17.90;99.90;;;;;;5052368;28;20041;-79
2022/08/25 04:19:38;;;;;;;8.80;4.07;;;17.80;99.90;;;;;;5042210;28;20045;-79
2022/08/25 04:22:05;;;;;;;7.63;3.53;;;17.80;99.90;;;;;;5036431;28;20041;-79
2022/08/25 04:24:30;;;;;;;8.45;3.55;;;17.70;99.90;;;;;;5031901;28;20050;-79
2022/08/25 04:26:56;;;;;;;7.18;3.17;;;17.80;99.90;;;;;;5032432;28;20040;-79
2022/08/25 04:29:24;;;;;;;5.20;3.40;;;17.70;99.90;;;;;;5037630;28;20167;-79
2022/08/25 04:31:50;;;;;;;4.35;3.28;;;17.70;99.90;;;;;;5033248;28;20083;-79
2022/08/25 04:34:18;;;;;;;4.57;3.85;;;17.70;99.90;;;;;;5051753;28;20037;-79
2022/08/25 04:36:44;;;;;;;6.85;3.67;;;17.60;99.90;;;;;;5051854;28;20348;-79
2022/08/25 04:39:09;;;;;;;5.80;3.97;;;17.60;99.90;;;;;;5046598;28;20132;-79
2022/08/25 04:41:35;;;;;;;5.82;4.15;;;17.60;99.90;;;;;;5033350;28;20101;-79
2022/08/25 04:44:01;;;;;;;5.18;3.53;;;17.50;99.90;;;;;;5032410;28;20045;-79
2022/08/25 04:46:30;;;;;;;8.68;4.00;;;17.50;99.90;;;;;;5033495;28;20136;-79
2022/08/25 04:48:57;;;;;;;5.55;3.72;;;17.50;99.90;;;;;;5040184;28;20037;-79
2022/08/25 04:51:30;;;;;;;6.75;3.90;;;17.50;99.90;;;;;;5040579;28;20040;-79
2022/08/25 04:54:00;;;;;;;7.13;3.97;;;17.60;99.90;;;;;;5035036;28;20111;-79
2022/08/25 04:56:26;;;;;;;5.05;4.55;;;17.60;99.90;;;;;;5033905;28;20495;-79
2022/08/25 04:58:53;;;;;;;7.38;4.72;;;17.60;99.90;;;;;;5041569;28;20407;-79
2022/08/25 05:01:21;;;;;;;7.78;4.40;;;17.60;99.90;;;;;;5039913;28;20049;-79
2022/08/25 05:03:51;;;;;;;7.68;4.28;;;17.70;99.90;;;;;;5041239;28;20204;-80
2022/08/25 05:06:17;;;;;;;6.15;4.15;;;17.70;99.90;;;;;;5032215;28;20088;-80
2022/08/25 05:08:43;;;;;;;7.88;4.60;;;17.70;99.90;;;;;;5032821;28;20041;-80
2022/08/25 05:11:13;;;;;;;6.03;4.38;;;17.80;99.90;;;;;;5024216;28;20036;-80
2022/08/25 05:13:39;;;;;;;6.90;4.70;;;17.80;99.90;;;;;;5025994;28;20124;-80
2022/08/25 05:16:05;;;;;;;5.65;3.72;;;17.90;99.90;;;;;;5026341;28;20071;-80
2022/08/25 05:18:32;;;;;;;4.35;3.35;;;17.90;99.90;;;;;;5042258;28;20041;-80
2022/08/25 05:21:02;;;;;;;6.80;3.83;;;17.90;99.90;;;;;;5038170;28;20037;-80
2022/08/25 05:23:28;;;;;;;6.88;4.03;;;18.00;99.90;;;;;;5030509;28;20063;-80
2022/08/25 05:25:53;;;;;;;6.53;5.18;;;18.00;99.90;;;;;;5060510;28;20048;-80
2022/08/25 05:28:20;;;;;;;10.85;4.70;;;18.10;99.90;;;;;;5061020;28;20406;-80
2022/08/25 05:30:48;;;;;;;8.27;4.20;;;18.10;99.90;;;;;;5051453;28;20097;-80
2022/08/25 05:33:15;;;;;;;7.70;4.40;;;18.10;99.90;;;;;;5048116;28;20049;-80
2022/08/25 05:35:41;;;;;;;6.10;4.55;;;18.20;99.90;;;;;;5038815;28;20128;-79
2022/08/25 05:38:09;;;;;;;7.93;5.72;;;18.30;99.90;;;;;;5047884;28;20037;-80
2022/08/25 05:40:35;;;;;;;7.07;4.28;;;18.30;99.90;;;;;;5044052;28;20076;-80
2022/08/25 05:43:00;;;;;;;5.53;3.38;;;18.40;99.90;;;;;;5046885;28;20191;-80
2022/08/25 05:45:26;;;;;;;9.65;4.72;;;18.50;99.90;;;;;;5039292;28;20045;-80
2022/08/25 05:47:51;;;;;;;6.25;4.88;;;18.60;99.90;;;;;;5043073;28;20037;-80
2022/08/25 05:50:17;;;;;;;8.73;4.20;;;18.70;99.90;;;;;;5050176;28;20112;-79
2022/08/25 05:52:43;;;;;;;5.72;4.20;;;18.80;99.90;;;;;;5045442;28;20052;-79
2022/08/25 05:55:09;;;;;;;12.57;5.25;;;18.80;99.90;;;;;;5058926;28;20049;-79
2022/08/25 05:57:35;;;;;;;9.95;4.30;;;19.00;99.90;;;;;;5059071;28;20063;-79
2022/08/25 06:00:04;;;;;;;7.95;5.70;;;19.00;99.90;;;;;;5059057;28;20044;-79
2022/08/25 06:02:47;;;;;;;12.30;4.60;;;19.10;99.90;;;;;;5042395;28;20049;-79
2022/08/25 06:05:20;;;;;;;11.20;5.13;;;19.20;99.90;;;;;;5056090;28;20415;-79
2022/08/25 06:07:48;;;;;;;8.45;6.20;;;19.30;99.90;;;;;;5043507;28;20043;-79
2022/08/25 06:10:14;;;;;;;10.60;5.03;;;19.40;99.90;;;;;;5044336;28;20036;-80
2022/08/25 06:12:43;;;;;;;8.77;5.72;;;19.50;99.90;;;;;;5048213;28;20526;-80
2022/08/25 06:15:11;;;;;;;7.03;4.10;;;19.60;99.90;;;;;;5058072;28;20372;-80
2022/08/25 06:17:39;;;;;;;8.45;4.70;;;19.70;99.90;;;;;;5056760;28;20052;-80
2022/08/25 06:20:08;;;;;;;9.70;5.13;;;19.90;99.90;;;;;;5030286;28;20087;-80
2022/08/25 06:22:34;;;;;;;9.98;5.43;;;20.00;99.90;;;;;;5042310;28;20396;-79
2022/08/25 06:25:00;;;;;;;8.48;5.03;;;20.10;99.90;;;;;;5048571;28;20065;-80
2022/08/25 06:27:25;;;;;;;8.40;5.05;;;20.20;99.90;;;;;;5040808;28;20037;-80
2022/08/25 06:29:51;;;;;;;7.30;4.68;;;20.30;99.90;;;;;;5040687;28;20041;-80
2022/08/25 06:32:16;;;;;;;8.30;4.93;;;20.40;99.90;;;;;;5046175;28;20045;-81
2022/08/25 06:34:42;;;;;;;9.27;4.38;;;20.50;99.90;;;;;;5046103;28;20356;-81
2022/08/25 06:37:07;;;;;;;6.63;5.07;;;20.70;99.90;;;;;;5053508;28;20403;-81
2022/08/25 06:39:33;;;;;;;9.73;5.28;;;20.70;99.90;;;;;;5046615;28;20210;-82
2022/08/25 06:41:59;;;;;;;6.90;4.97;;;20.90;99.90;;;;;;5052129;28;20045;-81
2022/08/25 06:44:26;;;;;;;9.00;5.15;;;20.90;99.90;;;;;;5039243;28;20480;-81
2022/08/25 06:46:52;;;;;;;10.68;4.82;;;21.00;99.90;;;;;;5055111;28;20044;-81
2022/08/25 06:49:17;;;;;;;9.20;4.55;;;21.20;99.90;;;;;;5047531;28;20501;-81
2022/08/25 06:51:43;;;;;;;6.00;4.80;;;21.20;99.90;;;;;;5048369;28;20087;-81
2022/08/25 06:54:09;;;;;;;6.90;4.57;;;21.30;99.90;;;;;;5047239;28;20048;-81
2022/08/25 06:56:35;;;;;;;6.78;5.18;;;21.40;99.90;;;;;;5049167;28;20135;-81
2022/08/25 06:59:05;;;;;;;6.25;4.75;;;21.50;99.90;;;;;;5036355;28;20072;-81
2022/08/25 07:01:31;;;;;;;7.18;3.97;;;21.60;99.90;;;;;;5045991;28;20160;-78
2022/08/25 07:03:59;;;;;;;6.03;4.65;;;21.70;99.90;;;;;;5042463;28;20389;-81
2022/08/25 07:06:26;;;;;;;7.65;4.78;;;21.80;99.90;;;;;;5047027;28;20040;-78
2022/08/25 07:08:52;;;;;;;9.15;4.40;;;21.90;99.90;;;;;;5046701;28;20633;-79
2022/08/25 07:11:20;;;;;;;10.07;3.72;;;21.90;99.90;;;;;;5047039;28;20044;-79
2022/08/25 07:13:47;;;;;;;7.35;4.30;;;22.10;99.90;;;;;;5057732;28;20041;-79
2022/08/25 07:16:16;;;;;;;5.03;3.75;;;22.20;99.90;;;;;;5051387;28;20089;-79
2022/08/25 07:18:43;;;;;;;7.88;4.32;;;22.50;99.90;;;;;;5049071;28;20090;-79
2022/08/25 07:21:09;;;;;;;9.85;4.65;;;22.70;99.90;;;;;;5053146;28;20203;-79
2022/08/25 07:23:36;;;;;;;4.90;4.00;;;23.00;99.90;;;;;;5047881;28;20101;-79
2022/08/25 07:26:10;;;;;;;9.18;4.82;;;23.20;99.90;;;;;;5047211;28;20474;-78
2022/08/25 07:28:36;;;;;;;;;;;23.50;99.90;;;;;;5030147;28;20056;-79
2022/08/25 07:31:02;;;;;;;6.07;3.92;;;23.60;99.90;;;;;;5043987;28;20440;-78
2022/08/25 07:33:28;;;;;;;9.02;4.72;;;23.80;99.90;;;;;;5045398;28;20125;-78
2022/08/25 07:35:53;;;;;;;6.78;3.97;;;24.00;99.90;;;;;;5043732;28;20033;-78
2022/08/25 07:38:19;;;;;;;9.43;4.00;;;24.10;99.90;;;;;;5045104;28;20110;-78
2022/08/25 07:40:44;;;;;;;7.10;3.92;;;24.30;99.90;;;;;;5052470;28;20048;-79
2022/08/25 07:43:10;;;;;;;7.18;3.92;;;24.50;99.90;;;;;;5045721;28;20323;-79
2022/08/25 07:45:38;;;;;;;7.28;4.18;;;24.50;99.90;;;;;;5046009;28;20119;-79
2022/08/25 07:48:09;;;;;;;7.07;4.25;;;24.60;99.90;;;;;;5046917;28;20041;-80
2022/08/25 07:50:37;;;;;;;7.38;4.25;;;24.80;99.90;;;;;;5052196;28;20128;-80
2022/08/25 07:53:04;;;;;;;5.43;3.55;;;25.00;99.90;;;;;;5030624;28;20043;-79
2022/08/25 07:55:30;;;;;;;7.93;4.75;;;25.10;99.90;;;;;;5051515;28;20471;-79
2022/08/25 07:57:58;;;;;;;7.05;3.53;;;25.30;99.90;;;;;;5050836;28;20132;-78
2022/08/25 08:00:28;;;;;;;8.38;3.65;;;25.50;99.90;;;;;;5049896;28;20064;-79
2022/08/25 08:02:58;;;;;;;4.82;3.40;;;25.60;99.90;;;;;;5051586;28;20062;-79
2022/08/25 08:05:24;;;;;;;5.85;3.83;;;25.80;99.90;;;;;;5047064;28;20052;-80
2022/08/25 08:07:51;;;;;;;8.07;3.88;;;26.00;99.90;;;;;;5048038;28;20167;-80
2022/08/25 08:10:17;;;;;;;5.32;2.67;;;26.10;99.90;;;;;;5046366;28;20041;-80
2022/08/25 08:12:43;;;;;;;7.80;3.22;;;26.20;99.90;;;;;;5052902;28;20091;-79
2022/08/25 08:15:09;;;;;;;6.78;3.88;;;26.40;99.90;;;;;;5046580;28;20119;-80
2022/08/25 08:17:35;;;;;;;8.18;3.75;;;26.40;99.90;;;;;;5045937;28;20083;-80
2022/08/25 08:20:01;;;;;;;5.93;3.00;;;26.60;99.90;;;;;;5049891;28;20048;-80
2022/08/25 08:22:28;;;;;;;6.28;3.05;;;26.80;99.90;;;;;;5051298;28;20095;-80
2022/08/25 08:24:54;;;;;;;8.95;4.38;;;27.00;99.90;;;;;;5051895;28;20447;-81
2022/08/25 08:27:20;;;;;;;6.18;3.70;;;27.10;99.90;;;;;;5052096;28;20300;-80
2022/08/25 08:29:45;;;;;;;11.18;3.85;;;27.20;99.30;;;;;;5053924;28;20044;-80
2022/08/25 08:32:12;;;;;;;11.05;3.30;;;27.40;99.30;;;;;;5052151;28;20043;-80
2022/08/25 08:34:40;;;;;;;3.95;2.55;;;27.50;98.70;;;;;;5047135;28;20046;-81
2022/08/25 08:37:06;;;;;;;12.50;3.75;;;27.70;97.80;;;;;;5045510;28;20059;-79
2022/08/25 08:39:32;;;;;;;5.53;3.13;;;27.80;97.50;;;;;;5037944;28;20077;-79
2022/08/25 08:42:35;;;;;;;5.65;3.35;;;28.00;96.70;;;;;;5048570;28;20115;-79
2022/08/25 08:45:28;;;;;;;3.80;2.47;;;28.20;95.30;;;;;;5047050;28;20047;-79
2022/08/25 08:48:24;;;;;;;6.13;3.05;;;28.20;94.60;;;;;;5055161;28;20037;-79
2022/08/25 08:51:16;;;;;;;;;;;28.30;93.80;;;;;;5055683;28;20500;-80
2022/08/25 08:53:53;;;;;;;4.45;2.53;;;28.30;93.70;;;;;;5054627;28;19920;-79
2022/08/25 08:56:21;;;;;;;4.63;2.67;;;28.40;94.20;;;;;;5036332;28;20045;-79
2022/08/25 08:58:57;;;;;;;3.80;2.70;;;28.50;93.50;;;;;;5050369;28;20068;-79
2022/08/25 09:02:00;;;;;;;5.10;2.92;;;28.60;92.20;;;;;;5039791;28;20097;-81
2022/08/25 09:04:39;;;;;;;3.70;2.40;;;28.90;93.10;;;;;;5004379;28;20500;-81
2022/08/25 09:07:11;;;;;;;6.75;2.75;;;29.00;91.60;;;;;;5028268;28;20049;-80
2022/08/25 09:09:40;;;;;;;5.95;2.45;;;29.20;90.60;;;;;;5031776;28;20491;-80
2022/08/25 09:12:30;;;;;;;4.70;2.78;;;29.30;89.90;;;;;;5045821;28;20037;-81
2022/08/25 09:18:49;;;;;;;6.53;2.60;;;29.50;85.80;;;;;;5047673;28;20045;-81
2022/08/25 09:21:32;;;;;;;3.85;2.40;;;29.60;82.20;;;;;;5052329;28;20399;-80
2022/08/25 09:24:48;;;;;;;5.05;1.77;;;29.70;80.20;;;;;;5045861;28;20050;-81
2022/08/25 09:27:38;;;;;;;8.48;3.03;;;29.70;78.60;;;;;;5003067;28;20053;-81
2022/08/25 09:30:07;;;;;;;3.70;2.00;;;29.80;79.20;;;;;;5038722;28;20499;-81
2022/08/25 09:32:39;;;;;;;5.45;2.08;;;29.80;76.70;;;;;;5051683;28;20128;-81
2022/08/25 09:35:16;;;;;;;5.55;2.40;;;29.80;78.10;;;;;;5045735;28;20041;-81
2022/08/25 09:37:42;;;;;;;5.65;2.72;;;30.00;76.10;;;;;;5032673;28;20091;-80
2022/08/25 09:40:08;;;;;;;11.48;3.00;;;30.20;75.80;;;;;;5044702;28;20049;-81
2022/08/25 09:42:53;;;;;;;10.75;3.17;;;30.40;75.20;;;;;;5051092;28;20152;-81
2022/08/25 09:45:31;;;;;;;;;;;30.70;72.80;;;;;;5048530;28;20048;-81
2022/08/25 09:47:56;;;;;;;3.20;2.13;;;30.80;68.70;;;;;;5052663;28;20353;-81
2022/08/25 09:50:22;;;;;;;3.30;1.75;;;30.90;71.00;;;;;;5045797;28;20037;-81
2022/08/25 09:52:48;;;;;;;3.53;1.35;;;30.70;69.20;;;;;;5018392;28;20084;-81
2022/08/25 09:55:21;;;;;;;6.18;1.55;;;30.50;67.00;;;;;;5037901;28;20091;-81
2022/08/25 09:57:54;;;;;;;14.48;3.42;;;30.50;66.60;;;;;;5038187;28;20044;-81
2022/08/25 10:00:32;;;;;;;11.77;2.67;;;30.60;66.10;;;;;;5037673;28;20060;-81
2022/08/25 10:03:19;;;;;;;15.25;2.40;;;30.80;67.30;;;;;;5041733;28;20046;-80
2022/08/25 10:05:44;;;;;;;1.73;1.05;;;31.10;65.30;;;;;;5041759;28;20033;-81
2022/08/25 10:08:31;;;;;;;5.85;1.88;;;31.40;64.30;;;;;;5053836;28;20061;-80
2022/08/25 10:11:00;;;;;;;4.20;2.08;;;31.50;61.40;;;;;;5054824;28;20045;-80
2022/08/25 10:13:45;;;;;;;2.88;1.60;;;31.40;62.30;;;;;;5056770;28;20048;-80
2022/08/25 10:16:20;;;;;;;2.20;1.13;;;31.60;61.00;;;;;;5053355;28;20373;-81
2022/08/25 10:18:59;;;;;;;13.30;3.15;;;31.50;60.70;;;;;;5057000;28;20044;-80
2022/08/25 10:21:25;;;;;;;17.38;4.93;;;31.60;62.10;;;;;;5048133;28;20095;-80
2022/08/25 10:23:54;;;;;;;6.30;1.20;;;31.90;61.70;;;;;;5036924;28;20406;-81
2022/08/25 10:27:02;;;;;;;19.90;3.30;;;32.10;59.30;;;;;;5035130;28;20428;-81
2022/08/25 10:30:01;;;;;;;2.65;1.75;;;32.10;57.90;;;;;;5037727;28;20041;-81
2022/08/25 10:32:53;;;;;;;3.05;1.08;;;32.20;57.80;;;;;;5051081;28;20068;-82
2022/08/25 10:35:30;;;;;;;4.82;1.48;;;32.10;56.90;;;;;;5032214;28;20049;-80
2022/08/25 10:38:01;;;;;;;4.22;1.88;;;32.00;57.60;;;;;;5053552;28;20040;-80
2022/08/25 10:40:35;;;;;;;3.92;1.27;;;31.90;57.00;;;;;;5051597;28;20492;-80
2022/08/25 10:43:15;;;;;;;1.92;1.15;;;31.80;56.80;;;;;;5040272;28;20044;-79
2022/08/25 10:46:06;;;;;;;7.47;1.63;;;31.80;56.40;;;;;;5034793;28;20128;-79
2022/08/25 10:48:54;;;;;;;8.82;2.63;;;32.00;55.80;;;;;;5028809;28;20057;-79
2022/08/25 10:51:36;;;;;;;3.83;1.85;;;32.30;56.30;;;;;;5046377;28;20096;-81
2022/08/25 10:54:27;;;;;;;7.30;1.73;;;32.60;55.60;;;;;;5036758;28;20032;-79
2022/08/25 10:57:12;;;;;;;7.95;3.08;;;32.80;54.10;;;;;;5052310;28;20400;-79
2022/08/25 10:59:58;;;;;;;19.90;3.42;;;33.00;53.20;;;;;;5037654;28;20072;-79
2022/08/25 11:03:02;;;;;;;7.97;2.55;;;33.00;53.70;;;;;;5041221;28;20048;-79
2022/08/25 11:05:30;;;;;;;1.75;1.40;;;33.20;52.80;;;;;;5041772;28;20491;-79
2022/08/25 11:08:13;;;;;;;3.92;1.20;;;33.00;53.60;;;;;;5047890;28;20037;-79
2022/08/25 11:10:47;;;;;;;5.82;1.85;;;32.80;53.60;;;;;;5044182;28;20037;-79
2022/08/25 11:13:21;;;;;;;7.20;2.05;;;32.80;53.60;;;;;;5024006;28;20534;-78
2022/08/25 11:15:59;;;;;;;3.97;1.40;;;32.80;53.10;;;;;;5035387;28;20041;-79
2022/08/25 11:18:27;;;;;;;3.10;1.45;;;33.00;52.80;;;;;;5036960;28;20099;-79
2022/08/25 11:21:19;;;;;;;3.25;1.20;;;33.00;53.20;;;;;;5053808;28;20060;-79
2022/08/25 11:24:23;;;;;;;2.97;1.45;;;33.10;52.40;;;;;;5046601;28;20041;-79
2022/08/25 11:26:55;;;;;;;3.63;1.40;;;33.00;51.90;;;;;;5022454;28;20567;-80
2022/08/25 11:29:24;;;;;;;4.20;1.67;;;33.00;51.80;;;;;;5038792;28;20060;-80
2022/08/25 11:31:52;;;;;;;4.55;1.30;;;33.10;50.60;;;;;;5037749;28;20137;-81
2022/08/25 11:34:18;;;;;;;10.80;2.17;;;33.10;50.30;;;;;;5038321;28;20492;-81
2022/08/25 11:36:50;;;;;;;4.95;2.05;;;33.20;51.00;;;;;;5041213;28;20083;-80
2022/08/25 11:40:09;;;;;;;4.20;1.60;;;33.50;50.50;;;;;;5044997;28;20037;-81
2022/08/25 11:42:57;;;;;;;3.13;0.90;;;33.80;51.90;;;;;;5019894;28;20594;-82
2022/08/25 11:46:01;;;;;;;2.25;1.10;;;33.60;48.50;;;;;;5028100;28;20037;-82
2022/08/25 11:49:03;;;;;;;1.80;1.60;;;33.60;48.30;;;;;;5033914;28;20041;-81
2022/08/25 11:51:40;;;;;;;3.65;1.42;;;33.70;49.00;;;;;;5033502;28;20151;-81
2022/08/25 11:54:27;;;;;;;6.25;1.70;;;33.60;49.40;;;;;;5032493;28;20037;-81
2022/08/25 11:56:59;;;;;;;1.90;0.95;;;33.90;49.30;;;;;;5038105;28;20045;-81
2022/08/25 12:00:00;;;;;;;3.30;1.20;;;34.00;48.50;;;;;;5035710;28;20407;-82
2022/08/25 12:02:43;;;;;;;3.95;1.38;;;33.90;47.00;;;;;;5051174;28;20041;-82
2022/08/25 12:05:18;;;;;;;2.63;1.05;;;34.10;47.40;;;;;;5033060;28;20076;-83
2022/08/25 12:07:47;;;;;;;2.42;1.08;;;34.00;46.90;;;;;;5039867;28;20041;-82
2022/08/25 12:10:15;;;;;;;3.17;1.55;;;34.00;47.70;;;;;;5027953;28;20368;-82
2022/08/25 12:12:44;;;;;;;1.60;1.35;;;34.00;48.30;;;;;;5031882;28;20081;-82
2022/08/25 12:15:40;;;;;;;7.55;1.55;;;34.00;48.80;;;;;;5033064;28;20086;-82
2022/08/25 12:18:08;;;;;;;16.52;2.67;;;34.30;47.80;;;;;;5033630;28;20038;-83
2022/08/25 12:20:52;;;;;;;11.13;2.72;;;34.50;48.70;;;;;;5042098;28;20053;-83
2022/08/25 12:23:32;;;;;;;12.38;2.10;;;34.80;47.00;;;;;;5039941;28;20056;-82
2022/08/25 12:26:03;;;;;;;14.45;2.13;;;35.10;47.20;;;;;;5039224;28;20048;-82
2022/08/25 12:29:10;;;;;;;3.63;1.50;;;35.20;47.70;;;;;;5042704;28;20124;-82
2022/08/25 12:31:51;;;;;;;2.78;1.42;;;35.50;45.00;;;;;;5011644;28;20049;-82
2022/08/25 12:34:38;;;;;;;5.35;1.10;;;35.20;44.80;;;;;;5052859;28;20060;-82
2022/08/25 12:37:15;;;;;;;2.78;1.33;;;35.00;45.60;;;;;;5043157;28;20522;-81
2022/08/25 12:39:50;;;;;;;12.82;2.67;;;35.10;45.20;;;;;;5044744;28;20071;-82
2022/08/25 12:42:22;;;;;;;9.32;1.77;;;35.40;45.30;;;;;;5045174;28;20530;-83
2022/08/25 12:45:09;;;;;;;10.75;2.15;;;35.70;44.80;;;;;;5046561;28;20037;-82
2022/08/25 12:47:35;;;;;;;10.77;3.33;;;36.00;45.50;;;;;;5041561;28;20048;-82
2022/08/25 12:50:44;;;;;;;2.90;0.93;;;36.20;44.80;;;;;;5036029;28;20053;-82
2022/08/25 12:53:21;;;;;;;2.13;1.35;;;36.30;42.90;;;;;;5044191;28;20552;-82
2022/08/25 12:55:51;;;;;;;3.38;1.40;;;35.80;44.20;;;;;;5031070;28;20232;-82
2022/08/25 12:58:17;;;;;;;2.65;1.38;;;35.50;45.50;;;;;;5014826;28;20045;-82
2022/08/25 13:01:20;;;;;;;4.43;1.83;;;35.50;45.70;;;;;;5030975;28;20045;-83
2022/08/25 13:04:13;;;;;;;16.20;3.35;;;35.60;45.70;;;;;;5046019;28;20422;-82
2022/08/25 13:07:15;;;;;;;11.32;2.55;;;35.90;46.80;;;;;;5038349;28;20569;-82
2022/08/25 13:10:07;;;;;;;7.47;2.13;;;36.30;45.00;;;;;;5036211;28;20590;-82
2022/08/25 13:12:55;;;;;;;4.03;1.95;;;36.50;45.20;;;;;;5044767;28;20556;-82
2022/08/25 13:15:34;;;;;;;2.42;1.70;;;36.60;45.00;;;;;;5021892;28;20152;-82